sensor_id;sensor_type;location;lat;lon;timestamp;P1;durP1;ratioP1;P2;durP2;ratioP2
31442;SDS011;18065;55.876;9.830;2022-11-24T00:01:54;1.90;;;1.70;;
31442;SDS011;18065;55.876;9.830;2022-11-24T00:04:23;1.83;;;1.73;;
31442;SDS011;18065;55.876;9.830;2022-11-24T00:06:51;2.65;;;2.08;;
31442;SDS011;18065;55.876;9.830;2022-11-24T00:09:20;2.05;;;1.73;;
31442;SDS011;18065;55.876;9.830;2022-11-24T00:11:49;2.35;;;1.70;;
31442;SDS011;18065;55.876;9.830;2022-11-24T00:14:18;2.40;;;1.90;;
31442;SDS011;18065;55.876;9.830;2022-11-24T00:16:46;1.77;;;1.60;;
31442;SDS011;18065;55.876;9.830;2022-11-24T00:19:18;2.30;;;1.70;;
31442;SDS011;18065;55.876;9.830;2022-11-24T00:21:46;1.90;;;1.77;;
31442;SDS011;18065;55.876;9.830;2022-11-24T00:24:15;2.13;;;1.75;;
31442;SDS011;18065;55.876;9.830;2022-11-24T00:26:53;2.00;;;1.80;;
31442;SDS011;18065;55.876;9.830;2022-11-24T00:29:21;2.42;;;1.92;;
31442;SDS011;18065;55.876;9.830;2022-11-24T00:31:50;2.22;;;1.88;;
31442;SDS011;18065;55.876;9.830;2022-11-24T00:34:21;1.98;;;1.75;;
31442;SDS011;18065;55.876;9.830;2022-11-24T00:36:50;1.83;;;1.73;;
31442;SDS011;18065;55.876;9.830;2022-11-24T00:39:19;2.05;;;1.70;;
31442;SDS011;18065;55.876;9.830;2022-11-24T00:41:48;2.35;;;2.00;;
31442;SDS011;18065;55.876;9.830;2022-11-24T00:44:16;1.70;;;1.60;;
31442;SDS011;18065;55.876;9.830;2022-11-24T00:46:45;2.08;;;1.65;;
31442;SDS011;18065;55.876;9.830;2022-11-24T00:49:14;2.13;;;1.88;;
31442;SDS011;18065;55.876;9.830;2022-11-24T00:51:45;2.30;;;1.77;;
31442;SDS011;18065;55.876;9.830;2022-11-24T00:54:13;2.67;;;1.70;;
31442;SDS011;18065;55.876;9.830;2022-11-24T00:56:42;2.10;;;1.90;;
31442;SDS011;18065;55.876;9.830;2022-11-24T00:59:11;2.05;;;1.80;;
31442;SDS011;18065;55.876;9.830;2022-11-24T01:01:39;1.75;;;1.58;;
31442;SDS011;18065;55.876;9.830;2022-11-24T01:04:08;2.15;;;1.70;;
31442;SDS011;18065;55.876;9.830;2022-11-24T01:06:37;1.95;;;1.75;;
31442;SDS011;18065;55.876;9.830;2022-11-24T01:09:08;2.30;;;2.03;;
31442;SDS011;18065;55.876;9.830;2022-11-24T01:11:38;1.63;;;1.40;;
31442;SDS011;18065;55.876;9.830;2022-11-24T01:14:19;2.03;;;1.67;;
31442;SDS011;18065;55.876;9.830;2022-11-24T01:16:48;2.38;;;1.60;;
31442;SDS011;18065;55.876;9.830;2022-11-24T01:19:17;2.30;;;1.88;;
31442;SDS011;18065;55.876;9.830;2022-11-24T01:21:46;2.00;;;1.80;;
31442;SDS011;18065;55.876;9.830;2022-11-24T01:24:17;2.22;;;1.88;;
31442;SDS011;18065;55.876;9.830;2022-11-24T01:26:52;1.60;;;1.50;;
31442;SDS011;18065;55.876;9.830;2022-11-24T01:29:21;2.20;;;1.70;;
31442;SDS011;18065;55.876;9.830;2022-11-24T01:31:50;2.10;;;1.73;;
31442;SDS011;18065;55.876;9.830;2022-11-24T01:34:18;1.67;;;1.58;;
31442;SDS011;18065;55.876;9.830;2022-11-24T01:36:47;2.05;;;1.80;;
31442;SDS011;18065;55.876;9.830;2022-11-24T01:39:18;1.40;;;1.30;;
31442;SDS011;18065;55.876;9.830;2022-11-24T01:41:47;1.63;;;1.52;;
31442;SDS011;18065;55.876;9.830;2022-11-24T01:44:25;2.00;;;1.63;;
31442;SDS011;18065;55.876;9.830;2022-11-24T01:46:55;2.38;;;1.60;;
31442;SDS011;18065;55.876;9.830;2022-11-24T01:49:30;2.08;;;1.67;;
31442;SDS011;18065;55.876;9.830;2022-11-24T01:52:06;2.08;;;1.77;;
31442;SDS011;18065;55.876;9.830;2022-11-24T01:54:40;3.08;;;2.10;;
31442;SDS011;18065;55.876;9.830;2022-11-24T01:57:14;2.28;;;1.98;;
31442;SDS011;18065;55.876;9.830;2022-11-24T02:02:16;1.73;;;1.50;;
31442;SDS011;18065;55.876;9.830;2022-11-24T02:04:46;2.30;;;2.00;;
31442;SDS011;18065;55.876;9.830;2022-11-24T02:07:16;2.38;;;1.70;;
31442;SDS011;18065;55.876;9.830;2022-11-24T02:09:48;1.85;;;1.60;;
31442;SDS011;18065;55.876;9.830;2022-11-24T02:12:20;1.40;;;1.27;;
31442;SDS011;18065;55.876;9.830;2022-11-24T02:14:49;2.42;;;1.80;;
31442;SDS011;18065;55.876;9.830;2022-11-24T02:17:19;1.95;;;1.60;;
31442;SDS011;18065;55.876;9.830;2022-11-24T02:19:49;1.85;;;1.38;;
31442;SDS011;18065;55.876;9.830;2022-11-24T02:22:24;1.48;;;1.38;;
31442;SDS011;18065;55.876;9.830;2022-11-24T02:25:09;1.65;;;1.45;;
31442;SDS011;18065;55.876;9.830;2022-11-24T02:27:46;1.70;;;1.60;;
31442;SDS011;18065;55.876;9.830;2022-11-24T02:30:15;2.08;;;1.70;;
31442;SDS011;18065;55.876;9.830;2022-11-24T02:32:47;1.73;;;1.40;;
31442;SDS011;18065;55.876;9.830;2022-11-24T02:35:17;2.10;;;1.60;;
31442;SDS011;18065;55.876;9.830;2022-11-24T02:37:46;1.83;;;1.60;;
31442;SDS011;18065;55.876;9.830;2022-11-24T02:40:17;2.15;;;1.60;;
31442;SDS011;18065;55.876;9.830;2022-11-24T02:42:56;2.10;;;1.70;;
31442;SDS011;18065;55.876;9.830;2022-11-24T02:45:28;1.83;;;1.60;;
31442;SDS011;18065;55.876;9.830;2022-11-24T02:47:58;1.55;;;1.45;;
31442;SDS011;18065;55.876;9.830;2022-11-24T02:50:26;1.60;;;1.50;;
31442;SDS011;18065;55.876;9.830;2022-11-24T02:52:55;1.67;;;1.30;;
31442;SDS011;18065;55.876;9.830;2022-11-24T02:55:26;1.92;;;1.60;;
31442;SDS011;18065;55.876;9.830;2022-11-24T02:57:58;1.60;;;1.50;;
31442;SDS011;18065;55.876;9.830;2022-11-24T03:00:26;1.70;;;1.58;;
31442;SDS011;18065;55.876;9.830;2022-11-24T03:02:55;1.40;;;1.30;;
31442;SDS011;18065;55.876;9.830;2022-11-24T03:05:24;1.85;;;1.45;;
31442;SDS011;18065;55.876;9.830;2022-11-24T03:07:53;1.77;;;1.60;;
31442;SDS011;18065;55.876;9.830;2022-11-24T03:10:22;1.45;;;1.33;;
31442;SDS011;18065;55.876;9.830;2022-11-24T03:12:53;1.50;;;1.40;;
31442;SDS011;18065;55.876;9.830;2022-11-24T03:15:24;1.73;;;1.52;;
31442;SDS011;18065;55.876;9.830;2022-11-24T03:17:53;1.73;;;1.63;;
31442;SDS011;18065;55.876;9.830;2022-11-24T03:20:22;1.90;;;1.70;;
31442;SDS011;18065;55.876;9.830;2022-11-24T03:22:52;1.92;;;1.42;;
31442;SDS011;18065;55.876;9.830;2022-11-24T03:25:20;1.92;;;1.50;;
31442;SDS011;18065;55.876;9.830;2022-11-24T03:27:49;1.70;;;1.42;;
31442;SDS011;18065;55.876;9.830;2022-11-24T03:30:17;1.33;;;1.23;;
31442;SDS011;18065;55.876;9.830;2022-11-24T03:32:49;1.42;;;1.25;;
31442;SDS011;18065;55.876;9.830;2022-11-24T03:35:18;2.17;;;1.70;;
31442;SDS011;18065;55.876;9.830;2022-11-24T03:37:47;1.58;;;1.48;;
31442;SDS011;18065;55.876;9.830;2022-11-24T03:40:16;2.20;;;1.63;;
31442;SDS011;18065;55.876;9.830;2022-11-24T03:42:45;2.17;;;1.80;;
31442;SDS011;18065;55.876;9.830;2022-11-24T03:45:13;1.50;;;1.40;;
31442;SDS011;18065;55.876;9.830;2022-11-24T03:47:43;1.77;;;1.50;;
31442;SDS011;18065;55.876;9.830;2022-11-24T03:50:14;1.95;;;1.42;;
31442;SDS011;18065;55.876;9.830;2022-11-24T03:52:44;2.00;;;1.60;;
31442;SDS011;18065;55.876;9.830;2022-11-24T03:55:12;1.58;;;1.48;;
31442;SDS011;18065;55.876;9.830;2022-11-24T03:57:41;1.52;;;1.40;;
31442;SDS011;18065;55.876;9.830;2022-11-24T04:00:11;1.48;;;1.35;;
31442;SDS011;18065;55.876;9.830;2022-11-24T04:02:40;1.90;;;1.70;;
31442;SDS011;18065;55.876;9.830;2022-11-24T04:05:09;1.80;;;1.30;;
31442;SDS011;18065;55.876;9.830;2022-11-24T04:07:40;1.80;;;1.60;;
31442;SDS011;18065;55.876;9.830;2022-11-24T04:10:09;1.40;;;1.30;;
31442;SDS011;18065;55.876;9.830;2022-11-24T04:12:37;1.55;;;1.45;;
31442;SDS011;18065;55.876;9.830;2022-11-24T04:15:10;1.58;;;1.45;;
31442;SDS011;18065;55.876;9.830;2022-11-24T04:17:40;1.95;;;1.60;;
31442;SDS011;18065;55.876;9.830;2022-11-24T04:20:09;1.60;;;1.50;;
31442;SDS011;18065;55.876;9.830;2022-11-24T04:22:42;1.40;;;1.20;;
31442;SDS011;18065;55.876;9.830;2022-11-24T04:25:10;1.80;;;1.50;;
31442;SDS011;18065;55.876;9.830;2022-11-24T04:27:41;1.50;;;1.40;;
31442;SDS011;18065;55.876;9.830;2022-11-24T04:30:10;2.08;;;1.30;;
31442;SDS011;18065;55.876;9.830;2022-11-24T04:32:39;1.98;;;1.52;;
31442;SDS011;18065;55.876;9.830;2022-11-24T04:35:08;1.50;;;1.40;;
31442;SDS011;18065;55.876;9.830;2022-11-24T04:37:37;1.65;;;1.45;;
31442;SDS011;18065;55.876;9.830;2022-11-24T04:40:09;1.60;;;1.50;;
31442;SDS011;18065;55.876;9.830;2022-11-24T04:42:38;1.70;;;1.42;;
31442;SDS011;18065;55.876;9.830;2022-11-24T04:45:07;1.50;;;1.35;;
31442;SDS011;18065;55.876;9.830;2022-11-24T04:47:37;1.58;;;1.30;;
31442;SDS011;18065;55.876;9.830;2022-11-24T04:50:07;1.40;;;1.30;;
31442;SDS011;18065;55.876;9.830;2022-11-24T04:52:36;1.42;;;1.30;;
31442;SDS011;18065;55.876;9.830;2022-11-24T04:55:06;1.40;;;1.30;;
31442;SDS011;18065;55.876;9.830;2022-11-24T04:57:37;1.40;;;1.17;;
31442;SDS011;18065;55.876;9.830;2022-11-24T05:00:07;1.48;;;1.38;;
31442;SDS011;18065;55.876;9.830;2022-11-24T05:02:37;1.27;;;1.17;;
31442;SDS011;18065;55.876;9.830;2022-11-24T05:05:08;2.08;;;1.50;;
31442;SDS011;18065;55.876;9.830;2022-11-24T05:07:37;1.23;;;1.13;;
31442;SDS011;18065;55.876;9.830;2022-11-24T05:10:09;1.50;;;1.25;;
31442;SDS011;18065;55.876;9.830;2022-11-24T05:15:21;2.15;;;1.60;;
31442;SDS011;18065;55.876;9.830;2022-11-24T05:17:50;1.50;;;1.40;;
31442;SDS011;18065;55.876;9.830;2022-11-24T05:20:18;1.50;;;1.33;;
31442;SDS011;18065;55.876;9.830;2022-11-24T05:22:47;1.88;;;1.42;;
31442;SDS011;18065;55.876;9.830;2022-11-24T05:25:19;1.77;;;1.67;;
31442;SDS011;18065;55.876;9.830;2022-11-24T05:27:48;1.30;;;1.10;;
31442;SDS011;18065;55.876;9.830;2022-11-24T05:30:16;1.35;;;1.25;;
31442;SDS011;18065;55.876;9.830;2022-11-24T05:32:45;1.25;;;1.15;;
31442;SDS011;18065;55.876;9.830;2022-11-24T05:35:14;1.52;;;1.42;;
31442;SDS011;18065;55.876;9.830;2022-11-24T05:37:43;1.40;;;1.17;;
31442;SDS011;18065;55.876;9.830;2022-11-24T05:40:12;1.65;;;1.30;;
31442;SDS011;18065;55.876;9.830;2022-11-24T05:42:43;1.55;;;1.45;;
31442;SDS011;18065;55.876;9.830;2022-11-24T05:45:13;1.48;;;1.15;;
31442;SDS011;18065;55.876;9.830;2022-11-24T05:47:43;1.55;;;1.40;;
31442;SDS011;18065;55.876;9.830;2022-11-24T05:50:13;1.20;;;1.10;;
31442;SDS011;18065;55.876;9.830;2022-11-24T05:52:43;1.65;;;1.40;;
31442;SDS011;18065;55.876;9.830;2022-11-24T05:55:12;1.55;;;1.35;;
31442;SDS011;18065;55.876;9.830;2022-11-24T05:57:46;1.42;;;1.30;;
31442;SDS011;18065;55.876;9.830;2022-11-24T06:00:15;1.88;;;1.52;;
31442;SDS011;18065;55.876;9.830;2022-11-24T06:02:45;1.63;;;1.35;;
31442;SDS011;18065;55.876;9.830;2022-11-24T06:05:13;2.40;;;1.60;;
31442;SDS011;18065;55.876;9.830;2022-11-24T06:07:42;2.22;;;1.35;;
31442;SDS011;18065;55.876;9.830;2022-11-24T06:10:11;1.38;;;1.27;;
31442;SDS011;18065;55.876;9.830;2022-11-24T06:12:39;1.38;;;1.08;;
31442;SDS011;18065;55.876;9.830;2022-11-24T06:15:11;1.30;;;1.20;;
31442;SDS011;18065;55.876;9.830;2022-11-24T06:17:40;1.55;;;1.33;;
31442;SDS011;18065;55.876;9.830;2022-11-24T06:20:09;1.50;;;1.40;;
31442;SDS011;18065;55.876;9.830;2022-11-24T06:22:38;1.20;;;1.10;;
31442;SDS011;18065;55.876;9.830;2022-11-24T06:25:07;1.55;;;1.35;;
31442;SDS011;18065;55.876;9.830;2022-11-24T06:27:36;1.48;;;1.27;;
31442;SDS011;18065;55.876;9.830;2022-11-24T06:30:06;1.35;;;1.25;;
31442;SDS011;18065;55.876;9.830;2022-11-24T06:32:38;1.30;;;1.10;;
31442;SDS011;18065;55.876;9.830;2022-11-24T06:37:38;1.50;;;1.27;;
31442;SDS011;18065;55.876;9.830;2022-11-24T06:40:07;1.10;;;1.00;;
31442;SDS011;18065;55.876;9.830;2022-11-24T06:42:37;1.23;;;1.13;;
31442;SDS011;18065;55.876;9.830;2022-11-24T06:45:06;0.90;;;0.90;;
31442;SDS011;18065;55.876;9.830;2022-11-24T06:47:38;1.10;;;1.00;;
31442;SDS011;18065;55.876;9.830;2022-11-24T06:50:07;1.52;;;1.30;;
31442;SDS011;18065;55.876;9.830;2022-11-24T06:52:36;1.10;;;1.00;;
31442;SDS011;18065;55.876;9.830;2022-11-24T06:55:06;1.20;;;1.10;;
31442;SDS011;18065;55.876;9.830;2022-11-24T06:57:35;1.15;;;1.05;;
31442;SDS011;18065;55.876;9.830;2022-11-24T07:00:04;1.23;;;1.13;;
31442;SDS011;18065;55.876;9.830;2022-11-24T07:02:35;1.90;;;1.45;;
31442;SDS011;18065;55.876;9.830;2022-11-24T07:05:06;1.55;;;1.35;;
31442;SDS011;18065;55.876;9.830;2022-11-24T07:07:35;1.08;;;1.00;;
31442;SDS011;18065;55.876;9.830;2022-11-24T07:10:05;1.52;;;1.25;;
31442;SDS011;18065;55.876;9.830;2022-11-24T07:12:34;1.20;;;1.10;;
31442;SDS011;18065;55.876;9.830;2022-11-24T07:15:03;1.63;;;1.25;;
31442;SDS011;18065;55.876;9.830;2022-11-24T07:17:34;1.20;;;1.00;;
31442;SDS011;18065;55.876;9.830;2022-11-24T07:20:06;0.98;;;0.93;;
31442;SDS011;18065;55.876;9.830;2022-11-24T07:22:36;1.73;;;1.20;;
31442;SDS011;18065;55.876;9.830;2022-11-24T07:25:05;1.20;;;1.10;;
31442;SDS011;18065;55.876;9.830;2022-11-24T07:27:34;1.55;;;1.20;;
31442;SDS011;18065;55.876;9.830;2022-11-24T07:30:03;1.20;;;1.10;;
31442;SDS011;18065;55.876;9.830;2022-11-24T07:32:33;1.30;;;1.17;;
31442;SDS011;18065;55.876;9.830;2022-11-24T07:35:01;1.20;;;1.10;;
31442;SDS011;18065;55.876;9.830;2022-11-24T07:37:33;1.35;;;1.23;;
31442;SDS011;18065;55.876;9.830;2022-11-24T07:40:02;1.15;;;1.05;;
31442;SDS011;18065;55.876;9.830;2022-11-24T07:42:32;1.08;;;1.00;;
31442;SDS011;18065;55.876;9.830;2022-11-24T07:45:00;1.30;;;1.20;;
31442;SDS011;18065;55.876;9.830;2022-11-24T07:47:32;1.02;;;0.90;;
31442;SDS011;18065;55.876;9.830;2022-11-24T07:50:05;1.63;;;1.30;;
31442;SDS011;18065;55.876;9.830;2022-11-24T07:52:38;1.08;;;0.98;;
31442;SDS011;18065;55.876;9.830;2022-11-24T07:55:07;1.23;;;1.13;;
31442;SDS011;18065;55.876;9.830;2022-11-24T07:57:36;0.90;;;0.90;;
31442;SDS011;18065;55.876;9.830;2022-11-24T08:00:06;0.95;;;0.90;;
31442;SDS011;18065;55.876;9.830;2022-11-24T08:02:36;1.35;;;1.20;;
31442;SDS011;18065;55.876;9.830;2022-11-24T08:05:05;0.75;;;0.73;;
31442;SDS011;18065;55.876;9.830;2022-11-24T08:07:34;1.48;;;1.27;;
31442;SDS011;18065;55.876;9.830;2022-11-24T08:10:06;1.30;;;1.20;;
31442;SDS011;18065;55.876;9.830;2022-11-24T08:12:36;1.10;;;1.00;;
31442;SDS011;18065;55.876;9.830;2022-11-24T08:15:05;1.48;;;1.20;;
31442;SDS011;18065;55.876;9.830;2022-11-24T08:17:35;1.30;;;1.20;;
31442;SDS011;18065;55.876;9.830;2022-11-24T08:20:04;1.65;;;1.20;;
31442;SDS011;18065;55.876;9.830;2022-11-24T08:22:34;1.48;;;1.00;;
31442;SDS011;18065;55.876;9.830;2022-11-24T08:25:03;1.25;;;1.13;;
31442;SDS011;18065;55.876;9.830;2022-11-24T08:27:38;1.30;;;1.20;;
31442;SDS011;18065;55.876;9.830;2022-11-24T08:30:07;1.25;;;1.15;;
31442;SDS011;18065;55.876;9.830;2022-11-24T08:32:36;1.58;;;1.15;;
31442;SDS011;18065;55.876;9.830;2022-11-24T08:35:05;1.38;;;1.27;;
31442;SDS011;18065;55.876;9.830;2022-11-24T08:37:36;1.10;;;0.93;;
31442;SDS011;18065;55.876;9.830;2022-11-24T08:40:08;1.38;;;1.10;;
31442;SDS011;18065;55.876;9.830;2022-11-24T08:42:38;1.17;;;1.08;;
31442;SDS011;18065;55.876;9.830;2022-11-24T08:45:09;1.20;;;0.88;;
31442;SDS011;18065;55.876;9.830;2022-11-24T08:47:38;1.27;;;1.17;;
31442;SDS011;18065;55.876;9.830;2022-11-24T08:50:07;1.30;;;1.08;;
31442;SDS011;18065;55.876;9.830;2022-11-24T08:52:36;1.48;;;1.02;;
31442;SDS011;18065;55.876;9.830;2022-11-24T08:55:08;1.45;;;1.00;;
31442;SDS011;18065;55.876;9.830;2022-11-24T08:57:37;1.13;;;0.82;;
31442;SDS011;18065;55.876;9.830;2022-11-24T09:00:08;1.23;;;1.13;;
31442;SDS011;18065;55.876;9.830;2022-11-24T09:02:38;0.82;;;0.82;;
31442;SDS011;18065;55.876;9.830;2022-11-24T09:05:07;1.65;;;1.17;;
31442;SDS011;18065;55.876;9.830;2022-11-24T09:07:36;1.33;;;1.02;;
31442;SDS011;18065;55.876;9.830;2022-11-24T09:10:05;1.00;;;0.90;;
31442;SDS011;18065;55.876;9.830;2022-11-24T09:12:36;1.10;;;1.00;;
31442;SDS011;18065;55.876;9.830;2022-11-24T09:15:05;0.93;;;0.93;;
31442;SDS011;18065;55.876;9.830;2022-11-24T09:17:35;0.75;;;0.75;;
31442;SDS011;18065;55.876;9.830;2022-11-24T09:20:04;1.13;;;1.02;;
31442;SDS011;18065;55.876;9.830;2022-11-24T09:22:33;1.27;;;1.02;;
31442;SDS011;18065;55.876;9.830;2022-11-24T09:25:03;1.10;;;0.98;;
31442;SDS011;18065;55.876;9.830;2022-11-24T09:27:35;0.98;;;0.90;;
31442;SDS011;18065;55.876;9.830;2022-11-24T09:30:04;1.23;;;1.00;;
31442;SDS011;18065;55.876;9.830;2022-11-24T09:32:33;1.08;;;0.98;;
31442;SDS011;18065;55.876;9.830;2022-11-24T09:35:02;1.60;;;1.13;;
31442;SDS011;18065;55.876;9.830;2022-11-24T09:37:31;1.45;;;0.90;;
31442;SDS011;18065;55.876;9.830;2022-11-24T09:40:00;0.95;;;0.90;;
31442;SDS011;18065;55.876;9.830;2022-11-24T09:42:30;1.05;;;0.90;;
31442;SDS011;18065;55.876;9.830;2022-11-24T09:45:15;1.85;;;1.10;;
31442;SDS011;18065;55.876;9.830;2022-11-24T09:47:53;1.42;;;0.85;;
31442;SDS011;18065;55.876;9.830;2022-11-24T09:50:25;1.20;;;1.10;;
31442;SDS011;18065;55.876;9.830;2022-11-24T09:52:58;1.05;;;0.93;;
31442;SDS011;18065;55.876;9.830;2022-11-24T09:55:36;1.70;;;1.08;;
31442;SDS011;18065;55.876;9.830;2022-11-24T09:58:14;1.00;;;0.90;;
31442;SDS011;18065;55.876;9.830;2022-11-24T10:00:48;1.10;;;1.00;;
31442;SDS011;18065;55.876;9.830;2022-11-24T10:03:22;1.00;;;0.80;;
31442;SDS011;18065;55.876;9.830;2022-11-24T10:05:54;1.40;;;0.90;;
31442;SDS011;18065;55.876;9.830;2022-11-24T10:08:27;1.13;;;1.02;;
31442;SDS011;18065;55.876;9.830;2022-11-24T10:11:10;1.00;;;0.90;;
31442;SDS011;18065;55.876;9.830;2022-11-24T10:13:56;1.10;;;0.73;;
31442;SDS011;18065;55.876;9.830;2022-11-24T10:16:37;0.98;;;0.82;;
31442;SDS011;18065;55.876;9.830;2022-11-24T10:19:18;1.20;;;1.00;;
31442;SDS011;18065;55.876;9.830;2022-11-24T10:21:59;1.75;;;1.05;;
31442;SDS011;18065;55.876;9.830;2022-11-24T10:24:41;1.42;;;1.00;;
31442;SDS011;18065;55.876;9.830;2022-11-24T10:27:25;1.27;;;0.82;;
31442;SDS011;18065;55.876;9.830;2022-11-24T10:30:02;1.35;;;0.98;;
31442;SDS011;18065;55.876;9.830;2022-11-24T10:32:42;1.13;;;1.02;;
31442;SDS011;18065;55.876;9.830;2022-11-24T10:35:15;1.00;;;0.80;;
31442;SDS011;18065;55.876;9.830;2022-11-24T10:37:50;0.98;;;0.88;;
31442;SDS011;18065;55.876;9.830;2022-11-24T10:40:32;0.85;;;0.82;;
31442;SDS011;18065;55.876;9.830;2022-11-24T10:43:04;1.00;;;0.90;;
31442;SDS011;18065;55.876;9.830;2022-11-24T10:45:38;1.00;;;0.90;;
31442;SDS011;18065;55.876;9.830;2022-11-24T10:48:07;1.40;;;1.10;;
31442;SDS011;18065;55.876;9.830;2022-11-24T10:50:41;1.10;;;0.90;;
31442;SDS011;18065;55.876;9.830;2022-11-24T10:53:12;1.08;;;0.90;;
31442;SDS011;18065;55.876;9.830;2022-11-24T10:55:56;0.73;;;0.73;;
31442;SDS011;18065;55.876;9.830;2022-11-24T10:58:29;0.93;;;0.60;;
31442;SDS011;18065;55.876;9.830;2022-11-24T11:01:17;1.00;;;0.85;;
31442;SDS011;18065;55.876;9.830;2022-11-24T11:03:47;0.95;;;0.60;;
31442;SDS011;18065;55.876;9.830;2022-11-24T11:06:20;1.92;;;1.20;;
31442;SDS011;18065;55.876;9.830;2022-11-24T11:08:49;0.73;;;0.70;;
31442;SDS011;18065;55.876;9.830;2022-11-24T11:11:43;0.85;;;0.85;;
31442;SDS011;18065;55.876;9.830;2022-11-24T11:14:28;1.30;;;0.98;;
31442;SDS011;18065;55.876;9.830;2022-11-24T11:17:02;1.50;;;1.00;;
31442;SDS011;18065;55.876;9.830;2022-11-24T11:20:03;1.02;;;0.88;;
31442;SDS011;18065;55.876;9.830;2022-11-24T11:22:34;1.13;;;0.80;;
31442;SDS011;18065;55.876;9.830;2022-11-24T11:25:19;0.93;;;0.73;;
31442;SDS011;18065;55.876;9.830;2022-11-24T11:27:51;1.15;;;0.98;;
31442;SDS011;18065;55.876;9.830;2022-11-24T11:30:47;1.13;;;0.82;;
31442;SDS011;18065;55.876;9.830;2022-11-24T11:33:27;0.98;;;0.90;;
31442;SDS011;18065;55.876;9.830;2022-11-24T11:35:57;1.15;;;0.90;;
31442;SDS011;18065;55.876;9.830;2022-11-24T11:38:30;1.40;;;1.08;;
31442;SDS011;18065;55.876;9.830;2022-11-24T11:41:04;0.80;;;0.80;;
31442;SDS011;18065;55.876;9.830;2022-11-24T11:43:37;1.00;;;0.90;;
31442;SDS011;18065;55.876;9.830;2022-11-24T11:46:10;1.53;;;0.90;;
31442;SDS011;18065;55.876;9.830;2022-11-24T11:48:44;1.23;;;1.00;;
31442;SDS011;18065;55.876;9.830;2022-11-24T11:51:28;0.65;;;0.65;;
31442;SDS011;18065;55.876;9.830;2022-11-24T11:54:06;0.90;;;0.90;;
31442;SDS011;18065;55.876;9.830;2022-11-24T11:56:38;1.20;;;0.73;;
31442;SDS011;18065;55.876;9.830;2022-11-24T11:59:24;1.17;;;0.93;;
31442;SDS011;18065;55.876;9.830;2022-11-24T12:02:17;1.23;;;1.02;;
31442;SDS011;18065;55.876;9.830;2022-11-24T12:05:04;1.00;;;0.77;;
31442;SDS011;18065;55.876;9.830;2022-11-24T12:07:47;0.90;;;0.82;;
31442;SDS011;18065;55.876;9.830;2022-11-24T12:10:28;1.00;;;0.80;;
31442;SDS011;18065;55.876;9.830;2022-11-24T12:13:05;1.10;;;0.98;;
31442;SDS011;18065;55.876;9.830;2022-11-24T12:15:46;0.82;;;0.80;;
31442;SDS011;18065;55.876;9.830;2022-11-24T12:18:22;1.13;;;0.80;;
31442;SDS011;18065;55.876;9.830;2022-11-24T12:21:05;0.68;;;0.68;;
31442;SDS011;18065;55.876;9.830;2022-11-24T12:23:41;0.73;;;0.73;;
31442;SDS011;18065;55.876;9.830;2022-11-24T12:26:22;1.25;;;1.15;;
31442;SDS011;18065;55.876;9.830;2022-11-24T12:29:02;1.27;;;0.85;;
31442;SDS011;18065;55.876;9.830;2022-11-24T12:31:50;1.33;;;0.90;;
31442;SDS011;18065;55.876;9.830;2022-11-24T12:34:30;1.00;;;0.82;;
31442;SDS011;18065;55.876;9.830;2022-11-24T12:37:14;0.75;;;0.75;;
31442;SDS011;18065;55.876;9.830;2022-11-24T12:39:54;1.30;;;1.00;;
31442;SDS011;18065;55.876;9.830;2022-11-24T12:42:34;1.30;;;0.88;;
31442;SDS011;18065;55.876;9.830;2022-11-24T12:45:11;1.67;;;1.00;;
31442;SDS011;18065;55.876;9.830;2022-11-24T12:47:46;1.10;;;1.00;;
31442;SDS011;18065;55.876;9.830;2022-11-24T12:50:28;1.08;;;0.98;;
31442;SDS011;18065;55.876;9.830;2022-11-24T12:53:04;1.20;;;0.82;;
31442;SDS011;18065;55.876;9.830;2022-11-24T12:55:39;0.80;;;0.77;;
31442;SDS011;18065;55.876;9.830;2022-11-24T12:58:10;1.10;;;0.90;;
31442;SDS011;18065;55.876;9.830;2022-11-24T13:00:50;1.05;;;0.82;;
31442;SDS011;18065;55.876;9.830;2022-11-24T13:03:29;1.00;;;1.00;;
31442;SDS011;18065;55.876;9.830;2022-11-24T13:06:09;1.00;;;0.88;;
31442;SDS011;18065;55.876;9.830;2022-11-24T13:08:45;0.70;;;0.70;;
31442;SDS011;18065;55.876;9.830;2022-11-24T13:14:16;1.35;;;0.82;;
31442;SDS011;18065;55.876;9.830;2022-11-24T13:16:48;1.15;;;0.98;;
31442;SDS011;18065;55.876;9.830;2022-11-24T13:19:19;1.13;;;0.90;;
31442;SDS011;18065;55.876;9.830;2022-11-24T13:21:55;0.95;;;0.90;;
31442;SDS011;18065;55.876;9.830;2022-11-24T13:24:43;0.85;;;0.73;;
31442;SDS011;18065;55.876;9.830;2022-11-24T13:27:25;0.80;;;0.75;;
31442;SDS011;18065;55.876;9.830;2022-11-24T13:33:30;0.73;;;0.70;;
31442;SDS011;18065;55.876;9.830;2022-11-24T13:39:00;0.93;;;0.90;;
31442;SDS011;18065;55.876;9.830;2022-11-24T13:44:49;1.02;;;0.90;;
31442;SDS011;18065;55.876;9.830;2022-11-24T13:50:22;0.98;;;0.80;;
31442;SDS011;18065;55.876;9.830;2022-11-24T13:53:05;1.15;;;0.85;;
31442;SDS011;18065;55.876;9.830;2022-11-24T13:55:36;1.15;;;0.80;;
31442;SDS011;18065;55.876;9.830;2022-11-24T14:01:13;1.00;;;0.90;;
31442;SDS011;18065;55.876;9.830;2022-11-24T14:03:46;1.05;;;0.63;;
31442;SDS011;18065;55.876;9.830;2022-11-24T14:06:29;1.17;;;0.80;;
31442;SDS011;18065;55.876;9.830;2022-11-24T14:09:00;1.70;;;0.90;;
31442;SDS011;18065;55.876;9.830;2022-11-24T14:11:40;1.05;;;0.80;;
31442;SDS011;18065;55.876;9.830;2022-11-24T14:14:12;1.00;;;0.70;;
31442;SDS011;18065;55.876;9.830;2022-11-24T14:16:47;0.70;;;0.70;;
31442;SDS011;18065;55.876;9.830;2022-11-24T14:19:32;0.75;;;0.63;;
31442;SDS011;18065;55.876;9.830;2022-11-24T14:22:00;0.80;;;0.73;;
31442;SDS011;18065;55.876;9.830;2022-11-24T14:24:30;0.80;;;0.60;;
31442;SDS011;18065;55.876;9.830;2022-11-24T14:27:00;0.95;;;0.77;;
31442;SDS011;18065;55.876;9.830;2022-11-24T14:29:29;0.82;;;0.70;;
31442;SDS011;18065;55.876;9.830;2022-11-24T14:32:01;0.60;;;0.60;;
31442;SDS011;18065;55.876;9.830;2022-11-24T14:34:31;0.77;;;0.77;;
31442;SDS011;18065;55.876;9.830;2022-11-24T14:37:02;0.80;;;0.80;;
31442;SDS011;18065;55.876;9.830;2022-11-24T14:39:31;1.42;;;0.80;;
31442;SDS011;18065;55.876;9.830;2022-11-24T14:42:14;1.00;;;0.80;;
31442;SDS011;18065;55.876;9.830;2022-11-24T14:44:46;0.80;;;0.80;;
31442;SDS011;18065;55.876;9.830;2022-11-24T14:47:23;0.55;;;0.55;;
31442;SDS011;18065;55.876;9.830;2022-11-24T14:49:55;0.98;;;0.85;;
31442;SDS011;18065;55.876;9.830;2022-11-24T14:52:25;0.70;;;0.60;;
31442;SDS011;18065;55.876;9.830;2022-11-24T14:54:54;0.68;;;0.60;;
31442;SDS011;18065;55.876;9.830;2022-11-24T14:57:28;0.77;;;0.77;;
31442;SDS011;18065;55.876;9.830;2022-11-24T15:00:03;0.93;;;0.68;;
31442;SDS011;18065;55.876;9.830;2022-11-24T15:02:47;0.68;;;0.65;;
31442;SDS011;18065;55.876;9.830;2022-11-24T15:07:46;0.85;;;0.70;;
31442;SDS011;18065;55.876;9.830;2022-11-24T15:10:17;0.80;;;0.80;;
31442;SDS011;18065;55.876;9.830;2022-11-24T15:12:51;1.42;;;0.70;;
31442;SDS011;18065;55.876;9.830;2022-11-24T15:15:22;1.02;;;0.95;;
31442;SDS011;18065;55.876;9.830;2022-11-24T15:17:59;0.90;;;0.70;;
31442;SDS011;18065;55.876;9.830;2022-11-24T15:20:29;0.80;;;0.70;;
31442;SDS011;18065;55.876;9.830;2022-11-24T15:25:51;0.80;;;0.68;;
31442;SDS011;18065;55.876;9.830;2022-11-24T15:28:20;0.82;;;0.77;;
31442;SDS011;18065;55.876;9.830;2022-11-24T15:30:50;1.08;;;0.98;;
31442;SDS011;18065;55.876;9.830;2022-11-24T15:33:22;0.95;;;0.80;;
31442;SDS011;18065;55.876;9.830;2022-11-24T15:35:51;0.80;;;0.70;;
31442;SDS011;18065;55.876;9.830;2022-11-24T15:38:20;0.85;;;0.70;;
31442;SDS011;18065;55.876;9.830;2022-11-24T15:40:50;0.75;;;0.68;;
31442;SDS011;18065;55.876;9.830;2022-11-24T15:43:28;0.85;;;0.80;;
31442;SDS011;18065;55.876;9.830;2022-11-24T15:45:59;0.70;;;0.57;;
31442;SDS011;18065;55.876;9.830;2022-11-24T15:48:31;1.25;;;0.65;;
31442;SDS011;18065;55.876;9.830;2022-11-24T15:51:03;0.80;;;0.70;;